Time;durP1;ratioP1;P1;durP2;ratioP2;P2;SDS_P1;SDS_P2;PMS_P1;PMS_P2;Temp;Humidity;BMP_temperature;BMP_pressure;BME280_temperature;BME280_humidity;BME280_pressure;Samples;Min_cycle;Max_cycle;Signal;HPM_P1;HPM_P2
2022/09/26 00:00:31;;;;;;;2.03;1.55;;;;;;;;;;4958608;28;20043;-68
2022/09/26 00:02:57;;;;;;;2.20;1.80;;;;;;;;;;4958637;29;20047;-68
2022/09/26 00:05:23;;;;;;;1.40;1.30;;;;;;;;;;4958779;29;20077;-68
2022/09/26 00:07:49;;;;;;;1.50;1.40;;;;;;;;;;4958594;29;20126;-68
2022/09/26 00:10:15;;;;;;;1.65;1.55;;;;;;;;;;4958532;29;20050;-68
2022/09/26 00:12:42;;;;;;;1.60;1.50;;;;;;;;;;4958386;29;20086;-68
2022/09/26 00:15:08;;;;;;;2.03;1.50;;;;;;;;;;4958272;29;20051;-68
2022/09/26 00:17:34;;;;;;;1.67;1.55;;;;;;;;;;4958144;29;20050;-68
2022/09/26 00:20:00;;;;;;;3.47;1.73;;;;;;;;;;4957632;29;20071;-68
2022/09/26 00:22:26;;;;;;;2.78;1.52;;;;;;;;;;4958074;29;20589;-68
2022/09/26 00:24:52;;;;;;;1.80;1.70;;;;;;;;;;4957577;29;20051;-68
2022/09/26 00:27:19;;;;;;;2.50;1.42;;;;;;;;;;4957354;29;20521;-68
2022/09/26 00:29:45;;;;;;;1.50;1.30;;;;;;;;;;4957460;28;20533;-68
2022/09/26 00:32:12;;;;;;;2.10;1.45;;;;;;;;;;4957480;29;20047;-68
2022/09/26 00:34:38;;;;;;;2.63;1.70;;;;;;;;;;4957549;29;20540;-68
2022/09/26 00:37:04;;;;;;;1.70;1.58;;;;;;;;;;4958138;29;20043;-68
2022/09/26 00:39:30;;;;;;;2.30;1.60;;;;;;;;;;4957554;29;20050;-68
2022/09/26 00:41:56;;;;;;;2.00;1.80;;;;;;;;;;4957174;29;20043;-68
2022/09/26 00:44:34;;;;;;;2.22;1.60;;;;;;;;;;4957322;29;20047;-68
2022/09/26 00:47:00;;;;;;;2.47;1.73;;;;;;;;;;4957285;29;20510;-68
2022/09/26 00:49:33;;;;;;;2.80;2.00;;;;;;;;;;4957399;29;20051;-68
2022/09/26 00:52:02;;;;;;;1.67;1.58;;;;;;;;;;4957014;28;20098;-68
2022/09/26 00:54:29;;;;;;;2.58;1.52;;;;;;;;;;4956952;29;20061;-68
2022/09/26 00:56:57;;;;;;;2.35;1.40;;;;;;;;;;4957816;29;20046;-68
2022/09/26 00:59:28;;;;;;;1.95;1.30;;;;;;;;;;4957063;29;20043;-68
2022/09/26 01:01:56;;;;;;;1.70;1.60;;;;;;;;;;4957007;29;20050;-68
2022/09/26 01:04:24;;;;;;;1.88;1.70;;;;;;;;;;4956847;29;20118;-68
2022/09/26 01:06:51;;;;;;;1.85;1.48;;;;;;;;;;4957551;28;20114;-68
2022/09/26 01:09:17;;;;;;;1.58;1.25;;;;;;;;;;4957177;29;20058;-68
2022/09/26 01:11:44;;;;;;;1.92;1.45;;;;;;;;;;4956715;29;20398;-68
2022/09/26 01:14:11;;;;;;;2.30;1.30;;;;;;;;;;4956293;29;20058;-68
2022/09/26 01:16:38;;;;;;;2.33;1.27;;;;;;;;;;4955612;29;20046;-68
2022/09/26 01:19:15;;;;;;;2.22;1.50;;;;;;;;;;4956748;29;20043;-68
2022/09/26 01:21:53;;;;;;;3.25;1.48;;;;;;;;;;4957413;29;20054;-68
2022/09/26 01:24:39;;;;;;;1.75;1.48;;;;;;;;;;4956975;29;20058;-68
2022/09/26 01:27:23;;;;;;;2.67;1.50;;;;;;;;;;4957098;29;20047;-68
2022/09/26 01:30:04;;;;;;;1.30;1.20;;;;;;;;;;4956427;29;20042;-68
2022/09/26 01:32:47;;;;;;;2.67;1.20;;;;;;;;;;4957260;29;20054;-68
2022/09/26 01:35:46;;;;;;;2.25;1.38;;;;;;;;;;4957179;29;20089;-68
2022/09/26 01:38:38;;;;;;;1.80;1.70;;;;;;;;;;4924272;28;20045;-68
2022/09/26 01:41:19;;;;;;;2.08;1.40;;;;;;;;;;4957190;28;20050;-68
2022/09/26 01:44:07;;;;;;;2.30;1.70;;;;;;;;;;4956384;29;20651;-68
2022/09/26 01:46:54;;;;;;;2.03;1.40;;;;;;;;;;4956905;28;20494;-68
2022/09/26 01:49:39;;;;;;;1.85;1.30;;;;;;;;;;4956656;29;20046;-68
2022/09/26 01:52:10;;;;;;;2.65;1.52;;;;;;;;;;4956800;29;20043;-68
2022/09/26 01:54:39;;;;;;;1.40;1.20;;;;;;;;;;4956357;28;20043;-68
2022/09/26 01:57:07;;;;;;;1.48;1.38;;;;;;;;;;4956699;29;20072;-68
2022/09/26 01:59:40;;;;;;;3.17;1.20;;;;;;;;;;4955938;29;20039;-68
2022/09/26 02:02:10;;;;;;;2.45;1.40;;;;;;;;;;4956390;29;20055;-68
2022/09/26 02:04:38;;;;;;;1.90;1.60;;;;;;;;;;4958612;28;20049;-68
2022/09/26 02:07:09;;;;;;;2.20;1.50;;;;;;;;;;4960055;29;20447;-68
2022/09/26 02:09:41;;;;;;;3.28;1.92;;;;;;;;;;4960362;29;20126;-68
2022/09/26 02:12:09;;;;;;;1.58;1.20;;;;;;;;;;4959658;29;20040;-68
2022/09/26 02:14:37;;;;;;;3.03;1.65;;;;;;;;;;4959521;29;20047;-68
2022/09/26 02:17:25;;;;;;;1.60;1.50;;;;;;;;;;4959871;29;20446;-68
2022/09/26 02:19:55;;;;;;;1.67;1.40;;;;;;;;;;4960713;29;20051;-68
2022/09/26 02:22:22;;;;;;;1.25;1.15;;;;;;;;;;4960127;28;20043;-68
2022/09/26 02:24:48;;;;;;;1.25;1.10;;;;;;;;;;4959745;29;20054;-68
2022/09/26 02:27:14;;;;;;;1.90;1.33;;;;;;;;;;4960363;29;20045;-68
2022/09/26 02:29:40;;;;;;;1.35;1.25;;;;;;;;;;4959643;29;20126;-68
2022/09/26 02:32:14;;;;;;;1.33;1.10;;;;;;;;;;4960498;29;20178;-68
2022/09/26 02:34:41;;;;;;;1.30;1.20;;;;;;;;;;4959200;28;20054;-68
2022/09/26 02:37:08;;;;;;;2.28;1.52;;;;;;;;;;4959811;29;20065;-68
2022/09/26 02:39:35;;;;;;;2.25;1.30;;;;;;;;;;4959775;29;20043;-68
2022/09/26 02:42:13;;;;;;;2.00;1.40;;;;;;;;;;4960009;29;20113;-68
2022/09/26 02:44:57;;;;;;;1.00;1.00;;;;;;;;;;4959115;28;20071;-68
2022/09/26 02:47:32;;;;;;;1.35;1.17;;;;;;;;;;4959869;29;20399;-68
2022/09/26 02:50:11;;;;;;;1.38;1.27;;;;;;;;;;4958328;29;20419;-68
2022/09/26 02:52:40;;;;;;;1.40;1.30;;;;;;;;;;4959684;29;20047;-68
2022/09/26 02:55:19;;;;;;;2.45;1.20;;;;;;;;;;4959689;29;20074;-68
2022/09/26 02:57:54;;;;;;;1.60;1.50;;;;;;;;;;4959786;28;20510;-68
2022/09/26 03:00:22;;;;;;;2.80;1.45;;;;;;;;;;4959424;29;20057;-68
2022/09/26 03:02:54;;;;;;;2.50;1.48;;;;;;;;;;4959876;29;20043;-68
2022/09/26 03:05:21;;;;;;;1.55;1.45;;;;;;;;;;4959272;29;20058;-68
2022/09/26 03:07:51;;;;;;;2.38;1.50;;;;;;;;;;4959477;29;20046;-68
2022/09/26 03:10:18;;;;;;;1.50;1.40;;;;;;;;;;4958892;29;20406;-68
2022/09/26 03:12:44;;;;;;;1.73;1.63;;;;;;;;;;4958738;29;20047;-68
2022/09/26 03:15:12;;;;;;;1.92;1.50;;;;;;;;;;4959076;28;20047;-68
2022/09/26 03:17:41;;;;;;;3.75;1.67;;;;;;;;;;4959843;29;20102;-68
2022/09/26 03:20:13;;;;;;;1.92;1.30;;;;;;;;;;4959320;29;20043;-68
2022/09/26 03:22:41;;;;;;;4.05;1.52;;;;;;;;;;4959550;28;20082;-68
2022/09/26 03:25:08;;;;;;;3.85;1.60;;;;;;;;;;4959279;28;20047;-68
2022/09/26 03:27:36;;;;;;;1.60;1.48;;;;;;;;;;4959240;29;20134;-68
2022/09/26 03:30:04;;;;;;;1.33;1.23;;;;;;;;;;4959344;29;20147;-68
2022/09/26 03:32:31;;;;;;;2.28;1.25;;;;;;;;;;4959702;28;20513;-68
2022/09/26 03:34:57;;;;;;;1.58;1.48;;;;;;;;;;4958641;28;20517;-68
2022/09/26 03:37:23;;;;;;;1.80;1.70;;;;;;;;;;4958719;29;20550;-68
2022/09/26 03:39:49;;;;;;;2.55;1.38;;;;;;;;;;4958689;29;20071;-68
2022/09/26 03:42:15;;;;;;;3.13;1.30;;;;;;;;;;4959400;29;20047;-68
2022/09/26 03:44:42;;;;;;;1.83;1.73;;;;;;;;;;4958932;29;20090;-68
2022/09/26 03:47:09;;;;;;;2.22;1.63;;;;;;;;;;4958878;28;20039;-68
2022/09/26 03:49:35;;;;;;;1.45;1.35;;;;;;;;;;4958566;29;20039;-68
2022/09/26 03:52:02;;;;;;;4.22;1.77;;;;;;;;;;4959350;29;20051;-68
2022/09/26 03:54:29;;;;;;;1.40;1.30;;;;;;;;;;4958416;29;20073;-68
2022/09/26 03:56:55;;;;;;;1.67;1.33;;;;;;;;;;4958615;28;20129;-68
2022/09/26 03:59:21;;;;;;;1.55;1.40;;;;;;;;;;4958486;29;20086;-68
2022/09/26 04:01:47;;;;;;;1.50;1.40;;;;;;;;;;4958857;29;20047;-68
2022/09/26 04:04:16;;;;;;;1.75;1.58;;;;;;;;;;4958658;29;20073;-68
2022/09/26 04:06:43;;;;;;;1.60;1.50;;;;;;;;;;4958413;28;20043;-68
2022/09/26 04:09:10;;;;;;;1.85;1.63;;;;;;;;;;4958452;28;20042;-68
2022/09/26 04:11:36;;;;;;;1.30;1.20;;;;;;;;;;4958688;29;20035;-68
2022/09/26 04:14:02;;;;;;;2.13;1.45;;;;;;;;;;4958213;29;20146;-68
2022/09/26 04:16:28;;;;;;;1.70;1.60;;;;;;;;;;4958379;29;20122;-68
2022/09/26 04:18:56;;;;;;;2.80;1.50;;;;;;;;;;4958261;29;20102;-68
2022/09/26 04:21:22;;;;;;;1.88;1.58;;;;;;;;;;4958122;28;20066;-68
2022/09/26 04:23:49;;;;;;;2.13;1.33;;;;;;;;;;4958312;29;20055;-68
2022/09/26 04:26:19;;;;;;;3.50;1.60;;;;;;;;;;4957393;28;20038;-68
2022/09/26 04:28:48;;;;;;;2.20;1.75;;;;;;;;;;4957704;29;20077;-68
2022/09/26 04:31:14;;;;;;;3.30;1.85;;;;;;;;;;4958080;28;20043;-68
2022/09/26 04:33:40;;;;;;;2.05;1.70;;;;;;;;;;4958109;29;20066;-68
2022/09/26 04:36:08;;;;;;;1.58;1.48;;;;;;;;;;4957948;29;20556;-68
2022/09/26 04:38:34;;;;;;;1.58;1.30;;;;;;;;;;4957889;29;20043;-68
2022/09/26 04:41:04;;;;;;;2.10;1.73;;;;;;;;;;4957589;29;20126;-68
2022/09/26 04:43:30;;;;;;;2.67;1.67;;;;;;;;;;4957659;29;20126;-68
2022/09/26 04:45:56;;;;;;;3.38;1.48;;;;;;;;;;4957780;29;20050;-68
2022/09/26 04:48:23;;;;;;;3.03;2.65;;;;;;;;;;4958017;29;20047;-68
2022/09/26 04:50:49;;;;;;;4.35;3.03;;;;;;;;;;4957662;29;20039;-68
2022/09/26 04:53:18;;;;;;;2.85;2.00;;;;;;;;;;4961251;28;20206;-68
2022/09/26 04:55:47;;;;;;;3.28;2.03;;;;;;;;;;4948551;28;20414;-68
2022/09/26 04:58:14;;;;;;;3.40;2.45;;;;;;;;;;4964538;28;20176;-68
2022/09/26 05:00:44;;;;;;;2.80;1.90;;;;;;;;;;4973222;28;20038;-68
2022/09/26 05:03:12;;;;;;;3.42;1.98;;;;;;;;;;4967140;28;20074;-68
2022/09/26 05:05:39;;;;;;;2.90;1.90;;;;;;;;;;4955683;28;20501;-68
2022/09/26 05:08:05;;;;;;;3.33;2.08;;;;;;;;;;4958163;28;20055;-68
2022/09/26 05:10:31;;;;;;;2.38;2.15;;;;;;;;;;4958071;28;20176;-68
2022/09/26 05:12:58;;;;;;;2.72;1.98;;;;;;;;;;4960978;28;20059;-68
2022/09/26 05:15:24;;;;;;;3.22;2.13;;;;;;;;;;4957006;28;20047;-68
2022/09/26 05:18:00;;;;;;;2.72;2.42;;;;;;;;;;4965381;28;20038;-68
2022/09/26 05:20:28;;;;;;;6.88;3.53;;;;;;;;;;4972607;28;20046;-68
2022/09/26 05:22:57;;;;;;;9.38;5.20;;;;;;;;;;4946622;29;20043;-68
2022/09/26 05:28:08;;;;;;;4.05;3.08;;;;;;;;;;4967974;28;20041;-68
2022/09/26 05:30:34;;;;;;;3.60;2.50;;;;;;;;;;4966251;28;20061;-68
2022/09/26 05:33:00;;;;;;;2.05;1.90;;;;;;;;;;4966349;28;20491;-71
2022/09/26 05:35:26;;;;;;;2.00;1.80;;;;;;;;;;4959941;28;20051;-74
2022/09/26 05:37:59;;;;;;;1.90;1.70;;;;;;;;;;4967743;28;20043;-69
2022/09/26 05:43:13;;;;;;;2.10;1.73;;;;;;;;;;4936707;29;20043;-69
2022/09/26 05:45:39;;;;;;;3.25;1.90;;;;;;;;;;4938138;29;20043;-70
2022/09/26 05:48:05;;;;;;;5.38;4.32;;;;;;;;;;4936749;29;20036;-69
2022/09/26 05:50:32;;;;;;;4.60;3.28;;;;;;;;;;4937074;29;20044;-69
2022/09/26 05:52:59;;;;;;;2.10;1.90;;;;;;;;;;4944483;29;20118;-69
2022/09/26 05:55:25;;;;;;;2.17;1.98;;;;;;;;;;4955669;29;20101;-69
2022/09/26 05:57:52;;;;;;;2.60;1.98;;;;;;;;;;4937013;29;20039;-69
2022/09/26 06:00:19;;;;;;;2.22;1.65;;;;;;;;;;4937462;29;20043;-69
2022/09/26 06:02:45;;;;;;;2.17;1.95;;;;;;;;;;4937445;29;20091;-69
2022/09/26 06:05:11;;;;;;;2.13;1.88;;;;;;;;;;4937648;29;20054;-69
2022/09/26 06:07:37;;;;;;;2.15;1.95;;;;;;;;;;4937164;29;20035;-69
2022/09/26 06:10:04;;;;;;;1.63;1.52;;;;;;;;;;4937454;29;20047;-69
2022/09/26 06:12:30;;;;;;;1.70;1.40;;;;;;;;;;4937542;29;20051;-70
2022/09/26 06:14:56;;;;;;;1.60;1.50;;;;;;;;;;4938238;29;20051;-70
2022/09/26 06:17:23;;;;;;;1.50;1.40;;;;;;;;;;4937132;29;20035;-68
2022/09/26 06:19:49;;;;;;;2.00;1.77;;;;;;;;;;4936836;29;20495;-68
2022/09/26 06:22:15;;;;;;;3.67;1.52;;;;;;;;;;4937353;29;20048;-69
2022/09/26 06:24:41;;;;;;;1.73;1.50;;;;;;;;;;4937086;29;20083;-69
2022/09/26 06:27:07;;;;;;;1.77;1.48;;;;;;;;;;4937595;29;20130;-69
2022/09/26 06:29:33;;;;;;;2.28;1.42;;;;;;;;;;4936835;29;20172;-69
2022/09/26 06:31:59;;;;;;;2.22;2.00;;;;;;;;;;4937615;29;20043;-69
2022/09/26 06:34:26;;;;;;;2.50;2.30;;;;;;;;;;4937163;29;20051;-69
2022/09/26 06:36:52;;;;;;;2.13;1.98;;;;;;;;;;4937748;29;20042;-69
2022/09/26 06:39:18;;;;;;;1.70;1.60;;;;;;;;;;4936957;29;20047;-69
2022/09/26 06:41:44;;;;;;;2.58;1.75;;;;;;;;;;4937456;29;20111;-69
2022/09/26 06:44:10;;;;;;;1.77;1.67;;;;;;;;;;4936868;29;20055;-69
2022/09/26 06:46:36;;;;;;;1.90;1.80;;;;;;;;;;4936865;29;20066;-69
2022/09/26 06:49:02;;;;;;;1.60;1.50;;;;;;;;;;4937126;29;20043;-69
2022/09/26 06:51:30;;;;;;;1.63;1.52;;;;;;;;;;4940656;29;20052;-68
2022/09/26 06:53:57;;;;;;;2.65;2.20;;;;;;;;;;4940704;29;20507;-69
2022/09/26 06:56:23;;;;;;;2.00;1.85;;;;;;;;;;4940667;29;20509;-69
2022/09/26 06:58:49;;;;;;;2.17;1.98;;;;;;;;;;4940534;29;20075;-68
2022/09/26 07:01:17;;;;;;;1.95;1.75;;;;;;;;;;4940556;29;20067;-69
2022/09/26 07:03:43;;;;;;;8.32;2.00;;;;;;;;;;4940659;29;20102;-69
2022/09/26 07:06:09;;;;;;;2.13;1.98;;;;;;;;;;4940168;29;20491;-69
2022/09/26 07:08:36;;;;;;;2.00;1.80;;;;;;;;;;4940388;29;20039;-69
2022/09/26 07:11:02;;;;;;;2.63;2.33;;;;;;;;;;4940400;29;20046;-69
2022/09/26 07:13:28;;;;;;;2.33;2.03;;;;;;;;;;4939901;29;20134;-69
2022/09/26 07:15:57;;;;;;;2.70;2.50;;;;;;;;;;4940011;29;20044;-69
2022/09/26 07:18:23;;;;;;;2.22;2.03;;;;;;;;;;4939538;29;20131;-69
2022/09/26 07:20:50;;;;;;;2.28;2.08;;;;;;;;;;4940439;29;20043;-69
2022/09/26 07:23:16;;;;;;;2.25;2.05;;;;;;;;;;4939903;29;20054;-69
2022/09/26 07:25:46;;;;;;;2.33;2.00;;;;;;;;;;4939542;29;20669;-69
2022/09/26 07:28:12;;;;;;;2.22;2.03;;;;;;;;;;4939630;29;20118;-69
2022/09/26 07:30:38;;;;;;;2.13;1.92;;;;;;;;;;4939713;29;20040;-69
2022/09/26 07:33:05;;;;;;;3.47;2.30;;;;;;;;;;4939810;29;20403;-69
2022/09/26 07:35:31;;;;;;;2.30;2.10;;;;;;;;;;4939556;29;20040;-69
2022/09/26 07:37:58;;;;;;;2.53;2.33;;;;;;;;;;4939577;29;20055;-69
2022/09/26 07:40:25;;;;;;;2.47;2.28;;;;;;;;;;4940088;29;20130;-69
2022/09/26 07:42:51;;;;;;;2.95;2.10;;;;;;;;;;4939366;29;20051;-68
2022/09/26 07:50:10;;;;;;;3.15;2.20;;;;;;;;;;4939124;29;20387;-69
2022/09/26 07:50:56;;;;;;;2.50;2.00;;;;;;;;;;4939132;29;20562;-69
2022/09/26 07:53:24;;;;;;;2.28;2.03;;;;;;;;;;4938712;29;20063;-69
2022/09/26 07:56:07;;;;;;;2.35;2.13;;;;;;;;;;4939190;29;20134;-69
2022/09/26 07:58:38;;;;;;;2.83;2.30;;;;;;;;;;4938739;29;20047;-69
2022/09/26 08:01:05;;;;;;;3.92;2.58;;;;;;;;;;4938302;29;20044;-69
2022/09/26 08:03:31;;;;;;;3.40;2.50;;;;;;;;;;4938815;29;20039;-69
2022/09/26 08:06:00;;;;;;;3.08;2.50;;;;;;;;;;4939079;29;20569;-69
2022/09/26 08:08:27;;;;;;;2.58;2.35;;;;;;;;;;4939442;29;20032;-69
2022/09/26 08:10:55;;;;;;;3.63;2.30;;;;;;;;;;4938728;29;20591;-69
2022/09/26 08:13:21;;;;;;;3.00;2.05;;;;;;;;;;4938514;29;20126;-69
2022/09/26 08:15:47;;;;;;;4.38;2.50;;;;;;;;;;4938545;29;20580;-69
2022/09/26 08:18:13;;;;;;;3.20;2.28;;;;;;;;;;4938918;29;20044;-69
2022/09/26 08:20:39;;;;;;;2.40;2.20;;;;;;;;;;4939336;29;20467;-69
2022/09/26 08:23:05;;;;;;;2.95;2.17;;;;;;;;;;4939033;29;20048;-69
2022/09/26 08:25:31;;;;;;;2.70;2.40;;;;;;;;;;4938489;29;20044;-69
2022/09/26 08:27:59;;;;;;;2.88;2.58;;;;;;;;;;4938207;29;20047;-69
2022/09/26 08:30:26;;;;;;;3.03;2.67;;;;;;;;;;4938658;29;20131;-69
2022/09/26 08:33:00;;;;;;;2.47;2.28;;;;;;;;;;4938863;29;20083;-69
2022/09/26 08:35:28;;;;;;;3.15;2.33;;;;;;;;;;4939236;29;20102;-69
2022/09/26 08:37:55;;;;;;;2.78;2.58;;;;;;;;;;4938409;29;20048;-69
2022/09/26 08:40:25;;;;;;;3.35;2.42;;;;;;;;;;4938680;29;20038;-69
2022/09/26 08:43:18;;;;;;;2.50;2.30;;;;;;;;;;4938526;29;20127;-69
2022/09/26 08:48:50;;;;;;;2.47;2.28;;;;;;;;;;4938658;29;20046;-69
2022/09/26 08:51:17;;;;;;;2.50;2.30;;;;;;;;;;4938802;29;20078;-69
2022/09/26 08:53:56;;;;;;;2.35;1.77;;;;;;;;;;4937959;29;20070;-69
2022/09/26 08:56:26;;;;;;;2.35;2.15;;;;;;;;;;4938619;29;20039;-69
2022/09/26 08:58:54;;;;;;;3.93;2.17;;;;;;;;;;4938230;29;20051;-68
2022/09/26 09:01:30;;;;;;;3.47;2.20;;;;;;;;;;4938068;29;20343;-69
2022/09/26 09:04:10;;;;;;;2.63;2.42;;;;;;;;;;4938317;29;20054;-69
2022/09/26 09:06:36;;;;;;;3.75;2.58;;;;;;;;;;4938068;29;20047;-69
2022/09/26 09:09:02;;;;;;;2.70;2.10;;;;;;;;;;4937673;29;20507;-69
2022/09/26 09:11:47;;;;;;;2.58;2.10;;;;;;;;;;4937937;29;20047;-69
2022/09/26 09:14:19;;;;;;;2.50;2.30;;;;;;;;;;4937856;29;20047;-69
2022/09/26 09:16:52;;;;;;;2.20;2.00;;;;;;;;;;4938131;29;20054;-69
2022/09/26 09:19:41;;;;;;;3.47;2.35;;;;;;;;;;4938030;29;20035;-69
2022/09/26 09:22:26;;;;;;;3.22;2.10;;;;;;;;;;4930141;29;20054;-69
2022/09/26 09:25:07;;;;;;;2.28;2.08;;;;;;;;;;4938546;29;20122;-69
2022/09/26 09:27:33;;;;;;;;;;;;;;;;;;4938461;29;20043;-69
2022/09/26 09:30:11;;;;;;;2.80;2.60;;;;;;;;;;4937922;29;20270;-69
2022/09/26 09:32:57;;;;;;;3.13;2.83;;;;;;;;;;4938053;29;20047;-69
2022/09/26 09:35:29;;;;;;;3.42;3.05;;;;;;;;;;4937700;29;20050;-69
2022/09/26 09:37:55;;;;;;;2.58;2.30;;;;;;;;;;4937422;29;20040;-69
2022/09/26 09:40:27;;;;;;;2.70;2.50;;;;;;;;;;4937795;29;20499;-68
2022/09/26 09:43:02;;;;;;;3.10;2.80;;;;;;;;;;4937338;29;20048;-69
2022/09/26 09:45:37;;;;;;;2.90;2.60;;;;;;;;;;4938271;29;20094;-69
2022/09/26 09:48:05;;;;;;;3.25;2.95;;;;;;;;;;4938039;29;20122;-69
2022/09/26 09:50:37;;;;;;;3.20;2.45;;;;;;;;;;4937407;29;20040;-68
2022/09/26 09:53:20;;;;;;;4.22;2.30;;;;;;;;;;4937481;29;20044;-69
2022/09/26 09:55:53;;;;;;;4.07;2.90;;;;;;;;;;4937827;29;20123;-69
2022/09/26 09:58:37;;;;;;;2.85;2.63;;;;;;;;;;4937386;29;20055;-69
2022/09/26 10:01:11;;;;;;;2.35;2.15;;;;;;;;;;4938053;29;20039;-69
2022/09/26 10:03:54;;;;;;;2.70;2.20;;;;;;;;;;4937828;29;20079;-69
2022/09/26 10:06:21;;;;;;;2.65;2.45;;;;;;;;;;4937167;29;20067;-69
2022/09/26 10:08:49;;;;;;;3.35;2.22;;;;;;;;;;4937749;29;20122;-69
2022/09/26 10:11:27;;;;;;;2.20;2.00;;;;;;;;;;4937487;29;20054;-69
2022/09/26 10:13:55;;;;;;;3.65;2.25;;;;;;;;;;4937380;29;20060;-69
2022/09/26 10:16:22;;;;;;;3.75;2.40;;;;;;;;;;4937380;29;20036;-69
2022/09/26 10:18:52;;;;;;;2.35;2.15;;;;;;;;;;4937093;29;20103;-68
2022/09/26 10:21:19;;;;;;;2.90;2.38;;;;;;;;;;4937297;29;20127;-68
2022/09/26 10:23:47;;;;;;;3.30;2.35;;;;;;;;;;4936761;29;20046;-68
2022/09/26 10:26:14;;;;;;;2.10;1.90;;;;;;;;;;4940679;29;20103;-68
2022/09/26 10:28:45;;;;;;;3.90;2.28;;;;;;;;;;4940695;29;20069;-68
2022/09/26 10:31:20;;;;;;;3.10;1.90;;;;;;;;;;4940752;29;20475;-68
2022/09/26 10:33:52;;;;;;;2.90;2.03;;;;;;;;;;4941030;29;20048;-68
2022/09/26 10:36:20;;;;;;;3.08;2.17;;;;;;;;;;4941819;29;20062;-68
2022/09/26 10:41:43;;;;;;;2.60;2.13;;;;;;;;;;4940434;29;20062;-68
2022/09/26 10:44:25;;;;;;;2.63;2.10;;;;;;;;;;4940786;29;20051;-68
2022/09/26 10:46:55;;;;;;;4.93;1.95;;;;;;;;;;4941272;29;20036;-68
2022/09/26 10:49:22;;;;;;;3.03;2.10;;;;;;;;;;4940584;29;20094;-68
2022/09/26 10:51:53;;;;;;;2.25;2.05;;;;;;;;;;4940872;29;20126;-68
2022/09/26 10:54:19;;;;;;;;;;;;;;;;;;4940953;29;20058;-68
2022/09/26 10:56:48;;;;;;;3.13;2.47;;;;;;;;;;4940991;29;19917;-68
2022/09/26 10:59:15;;;;;;;3.33;2.00;;;;;;;;;;4940428;29;20475;-68
2022/09/26 11:01:46;;;;;;;2.15;1.85;;;;;;;;;;4940447;29;20043;-68
2022/09/26 11:07:09;;;;;;;2.38;1.75;;;;;;;;;;4939875;29;20047;-68
2022/09/26 11:09:37;;;;;;;3.35;2.08;;;;;;;;;;4940384;29;20040;-68
2022/09/26 11:12:22;;;;;;;1.88;1.70;;;;;;;;;;4939938;29;20051;-68
2022/09/26 11:14:52;;;;;;;2.35;2.00;;;;;;;;;;4939936;29;20142;-68
2022/09/26 11:17:19;;;;;;;2.03;1.63;;;;;;;;;;4940019;29;20047;-68
2022/09/26 11:19:52;;;;;;;2.03;1.83;;;;;;;;;;4939888;29;20054;-68
2022/09/26 11:22:36;;;;;;;2.78;2.00;;;;;;;;;;4940064;29;20071;-68
2022/09/26 11:25:14;;;;;;;2.95;1.80;;;;;;;;;;4940420;29;20134;-68
2022/09/26 11:28:01;;;;;;;1.88;1.58;;;;;;;;;;4939619;29;20054;-68
2022/09/26 11:30:28;;;;;;;3.45;1.63;;;;;;;;;;4929485;29;20572;-68
2022/09/26 11:32:57;;;;;;;2.58;1.80;;;;;;;;;;4939690;29;20059;-68
2022/09/26 11:35:32;;;;;;;3.33;1.65;;;;;;;;;;4939517;29;20048;-68
2022/09/26 11:38:13;;;;;;;1.48;1.38;;;;;;;;;;4938336;29;20510;-68
2022/09/26 11:40:49;;;;;;;2.38;1.73;;;;;;;;;;4939454;29;20082;-68
2022/09/26 11:43:25;;;;;;;2.55;1.75;;;;;;;;;;4939587;29;20051;-68
2022/09/26 11:46:02;;;;;;;2.05;1.40;;;;;;;;;;4939779;29;20058;-68
2022/09/26 11:48:54;;;;;;;2.92;1.70;;;;;;;;;;4939077;29;20045;-68
2022/09/26 11:51:39;;;;;;;3.92;1.70;;;;;;;;;;4923189;29;20071;-68
2022/09/26 11:54:14;;;;;;;3.42;1.70;;;;;;;;;;4939404;29;20130;-68
2022/09/26 11:56:49;;;;;;;4.80;1.77;;;;;;;;;;4939822;29;20467;-68
2022/09/26 11:59:24;;;;;;;3.47;1.75;;;;;;;;;;4939054;29;20046;-68
2022/09/26 12:01:54;;;;;;;2.40;1.50;;;;;;;;;;4939254;29;20039;-68
2022/09/26 12:04:25;;;;;;;2.08;1.42;;;;;;;;;;4939180;29;20050;-68
2022/09/26 12:06:56;;;;;;;3.15;1.67;;;;;;;;;;4939049;29;20494;-68
2022/09/26 12:09:26;;;;;;;1.80;1.42;;;;;;;;;;4939109;29;20118;-68
2022/09/26 12:12:08;;;;;;;2.45;1.40;;;;;;;;;;4939060;29;20047;-68
2022/09/26 12:14:43;;;;;;;2.38;1.40;;;;;;;;;;4939483;29;20047;-68
2022/09/26 12:17:19;;;;;;;2.03;1.23;;;;;;;;;;4939733;29;20048;-68
2022/09/26 12:19:54;;;;;;;2.78;1.48;;;;;;;;;;4939227;29;20097;-68
2022/09/26 12:22:27;;;;;;;1.92;1.50;;;;;;;;;;4939176;29;20048;-68
2022/09/26 12:25:06;;;;;;;2.90;1.60;;;;;;;;;;4938860;29;20495;-68
2022/09/26 12:27:32;;;;;;;1.23;1.13;;;;;;;;;;4938775;29;20039;-68
2022/09/26 12:30:01;;;;;;;2.85;1.40;;;;;;;;;;4938662;29;20044;-68
2022/09/26 12:32:41;;;;;;;2.72;1.50;;;;;;;;;;4939088;29;20043;-68
2022/09/26 12:35:27;;;;;;;2.03;1.50;;;;;;;;;;4939434;29;20518;-68
2022/09/26 12:37:57;;;;;;;3.55;1.20;;;;;;;;;;4938576;29;20043;-68
2022/09/26 12:40:31;;;;;;;2.95;1.25;;;;;;;;;;4922291;29;20371;-68
2022/09/26 12:43:18;;;;;;;1.40;1.15;;;;;;;;;;4938940;29;20052;-68
2022/09/26 12:45:52;;;;;;;2.85;1.20;;;;;;;;;;4938656;29;20399;-68
2022/09/26 12:48:28;;;;;;;1.13;0.88;;;;;;;;;;4938438;29;20047;-68
2022/09/26 12:51:18;;;;;;;5.47;1.40;;;;;;;;;;4938593;29;20051;-68
2022/09/26 12:53:54;;;;;;;4.28;1.30;;;;;;;;;;4938707;29;20067;-68
2022/09/26 12:56:29;;;;;;;2.10;1.67;;;;;;;;;;4939050;29;20051;-68
2022/09/26 12:59:10;;;;;;;2.40;1.80;;;;;;;;;;4938241;29;20567;-68
2022/09/26 13:01:46;;;;;;;4.13;1.40;;;;;;;;;;4938335;29;20043;-68
2022/09/26 13:04:30;;;;;;;2.75;1.52;;;;;;;;;;4937788;29;20043;-68
2022/09/26 13:07:03;;;;;;;2.47;1.38;;;;;;;;;;4938574;29;20488;-68
2022/09/26 13:09:48;;;;;;;1.75;1.55;;;;;;;;;;4938290;29;20103;-68
2022/09/26 13:12:20;;;;;;;1.50;1.20;;;;;;;;;;4938594;29;20039;-68
2022/09/26 13:14:46;;;;;;;2.38;1.17;;;;;;;;;;4938193;29;20055;-68
2022/09/26 13:17:15;;;;;;;2.25;1.50;;;;;;;;;;4938130;29;20048;-68
2022/09/26 13:19:57;;;;;;;1.33;1.05;;;;;;;;;;4938079;29;20044;-68
2022/09/26 13:22:37;;;;;;;2.50;1.55;;;;;;;;;;4937907;29;20082;-68
2022/09/26 13:25:17;;;;;;;3.22;1.48;;;;;;;;;;4938346;29;20048;-68
2022/09/26 13:27:47;;;;;;;2.42;1.48;;;;;;;;;;4938035;29;20047;-68
2022/09/26 13:30:24;;;;;;;2.10;1.60;;;;;;;;;;4938219;29;20118;-68
2022/09/26 13:32:59;;;;;;;2.10;1.60;;;;;;;;;;4938430;29;20123;-68
2022/09/26 13:35:30;;;;;;;4.30;1.60;;;;;;;;;;4938059;29;20111;-68
2022/09/26 13:37:57;;;;;;;4.45;1.38;;;;;;;;;;4937885;29;20055;-68
2022/09/26 13:40:36;;;;;;;3.58;1.67;;;;;;;;;;4937516;29;20135;-68
2022/09/26 13:43:10;;;;;;;2.38;1.30;;;;;;;;;;4936981;29;20039;-68
2022/09/26 13:45:59;;;;;;;1.85;1.30;;;;;;;;;;4938039;29;20059;-68
2022/09/26 13:48:31;;;;;;;2.72;1.30;;;;;;;;;;4937787;29;20044;-68
2022/09/26 13:51:07;;;;;;;3.80;1.45;;;;;;;;;;4937926;29;20055;-68
2022/09/26 13:53:43;;;;;;;1.17;1.08;;;;;;;;;;4937567;29;20047;-68
2022/09/26 13:56:30;;;;;;;2.35;1.30;;;;;;;;;;4937811;29;20044;-68
2022/09/26 13:59:24;;;;;;;2.22;1.30;;;;;;;;;;4936735;29;20039;-68
2022/09/26 14:02:09;;;;;;;2.35;1.20;;;;;;;;;;4935280;29;20051;-68
2022/09/26 14:04:36;;;;;;;2.95;1.70;;;;;;;;;;4937258;29;20050;-68
2022/09/26 14:09:22;;;;;;;2.97;1.40;;;;;;;;;;4936926;29;20402;-68
2022/09/26 14:10:02;;;;;;;5.20;1.40;;;;;;;;;;4936843;29;20052;-68
2022/09/26 14:12:33;;;;;;;2.40;1.30;;;;;;;;;;4937257;29;20071;-68
2022/09/26 14:15:16;;;;;;;1.60;1.50;;;;;;;;;;4937065;29;20063;-68
2022/09/26 14:17:43;;;;;;;2.53;1.58;;;;;;;;;;4937141;29;20055;-68
2022/09/26 14:20:18;;;;;;;3.65;1.60;;;;;;;;;;4937339;29;20068;-68
2022/09/26 14:22:51;;;;;;;3.47;1.60;;;;;;;;;;4936787;29;20513;-68
2022/09/26 14:25:36;;;;;;;3.33;1.35;;;;;;;;;;4937067;29;20056;-68
2022/09/26 14:28:23;;;;;;;2.28;1.58;;;;;;;;;;4937219;29;20069;-68
2022/09/26 14:31:09;;;;;;;2.40;1.13;;;;;;;;;;4937501;29;20047;-68
2022/09/26 14:33:36;;;;;;;1.30;1.20;;;;;;;;;;4937334;29;20126;-68
2022/09/26 14:36:23;;;;;;;3.30;1.30;;;;;;;;;;4937437;29;20107;-68
2022/09/26 14:38:50;;;;;;;1.65;1.10;;;;;;;;;;4937121;29;20048;-68
2022/09/26 14:41:17;;;;;;;1.40;1.25;;;;;;;;;;4936947;29;20040;-68
2022/09/26 14:43:44;;;;;;;1.42;1.17;;;;;;;;;;4936748;29;20098;-68
2022/09/26 14:46:17;;;;;;;2.17;1.20;;;;;;;;;;4936630;29;20075;-68
2022/09/26 14:48:44;;;;;;;1.60;1.10;;;;;;;;;;4936491;29;20074;-68
2022/09/26 14:51:11;;;;;;;3.28;1.30;;;;;;;;;;4936588;29;20040;-68
2022/09/26 14:53:49;;;;;;;1.85;1.25;;;;;;;;;;4937020;29;20128;-68
2022/09/26 14:56:17;;;;;;;1.25;1.10;;;;;;;;;;4936812;29;20056;-68
2022/09/26 14:58:48;;;;;;;1.77;1.38;;;;;;;;;;4936610;29;20035;-68
2022/09/26 15:01:18;;;;;;;1.52;0.85;;;;;;;;;;4937296;29;20078;-68
2022/09/26 15:03:55;;;;;;;1.08;1.08;;;;;;;;;;4936740;29;20419;-68
2022/09/26 15:06:21;;;;;;;1.00;1.00;;;;;;;;;;4936682;29;20070;-68
2022/09/26 15:08:48;;;;;;;1.52;1.10;;;;;;;;;;4936608;29;20075;-68
2022/09/26 15:11:49;;;;;;;4.13;1.20;;;;;;;;;;4938036;29;20043;-68
2022/09/26 15:14:34;;;;;;;3.28;1.10;;;;;;;;;;4880684;29;20060;-68
2022/09/26 15:17:01;;;;;;;2.40;1.00;;;;;;;;;;4935564;29;20071;-68
2022/09/26 15:19:35;;;;;;;5.03;1.48;;;;;;;;;;4940055;29;20043;-68
2022/09/26 15:22:01;;;;;;;1.00;0.90;;;;;;;;;;4940505;29;20061;-68
2022/09/26 15:24:28;;;;;;;3.85;1.08;;;;;;;;;;4939510;29;20036;-68